Flight Track Log - Related Links

Times and Time Zones

All times are in EDT time to prevent confusion due to time zone crossing. See the SWA2182 flight status page for this flight to view local times or setup timezone preferences in your user account.

Time Position Orientation Groundspeed Altitude Reporting Facility
EDT Latitude Longitude Course Direction KTS MPH feet Rate Location/Type
Tue 09:17:43 AM 38.7167 -121.5667 142° Southeast 177 204 3,500  Level Northern Cal TRACON
Tue 09:18:43 AM 38.6833 -121.5333 142° Southeast 213 245 7,200 3,000 Climbing Northern Cal TRACON
Tue 09:19:43 AM 38.6333 -121.4500 128° Southeast 273 314 9,500 2,897 Climbing Northern Cal TRACON
Tue 09:21:08 AM 38.5758 -121.3353 123° Southeast 313 360 14,200 3,534 Climbing Oakland Center
Tue 09:22:09 AM 38.5244 -121.2336 123° Southeast 333 383 18,100 3,521 Climbing Oakland Center
Tue 09:23:09 AM 38.4575 -121.1094 125° Southeast 388 447 21,300 2,975 Climbing Oakland Center
Tue 09:24:10 AM 38.3908 -120.9817 124° Southeast 433 498 24,100 2,656 Climbing Oakland Center
Tue 09:25:11 AM 38.3197 -120.8486 124° Southeast 452 520 26,700 2,380 Climbing Oakland Center
Tue 09:26:11 AM 38.2317 -120.7231 132° Southeast 484 557 28,900 1,190 Climbing Oakland Center
Tue 09:27:12 AM 38.1086 -120.6525 156° South 483 556 29,100 984 Climbing Oakland Center
Tue 09:28:13 AM 37.9803 -120.5811 156° South 498 573 30,900 2,132 Climbing Oakland Center
Tue 09:29:13 AM 37.8494 -120.5075 156° South 511 588 33,400 2,529 Climbing Oakland Center
Tue 09:30:14 AM 37.7211 -120.4356 156° South 504 580 36,000 1,967 Climbing Oakland Center
Tue 09:31:15 AM 37.5944 -120.3650 156° South 497 572 37,400 1,140 Climbing Oakland Center
Tue 09:32:15 AM 37.4672 -120.2939 156° South 499 574 38,300 893 Climbing Oakland Center
Tue 09:33:16 AM 37.3375 -120.2247 157° South 504 580 39,200 885 Climbing Oakland Center
Tue 09:34:17 AM 37.2150 -120.1575 156° South 480 552 40,100 885 Climbing Oakland Center
Tue 09:35:18 AM 37.0811 -120.0842 156° South 476 548 41,000 446 Climbing Oakland Center
Tue 09:36:18 AM 36.9639 -120.0206 157° South 483 556 41,000  Level Oakland Center
Tue 09:37:19 AM 36.8406 -119.9528 156° South 482 555 41,000  Level Oakland Center
Tue 09:38:20 AM 36.7164 -119.8833 156° South 488 562 41,000  Level Oakland Center
Tue 09:39:21 AM 36.5947 -119.8172 156° South 479 551 41,000  Level Oakland Center
Tue 09:40:22 AM 36.4711 -119.7511 157° South 482 555 41,000  Level Oakland Center
Tue 09:41:23 AM 36.3489 -119.6853 157° South 479 551 41,000  Level Oakland Center
Tue 09:42:23 AM 36.2264 -119.6197 157° South 477 549 41,000  Level Oakland Center
Tue 09:43:24 AM 36.1050 -119.5553 157° South 475 547 41,000  Level Oakland Center
Tue 09:44:25 AM 35.9839 -119.4911 157° South 473 544 41,000  Level Oakland Center
Tue 09:45:26 AM 35.8656 -119.4292 157° South 463 533 41,000  Level Oakland Center
Tue 09:46:27 AM 35.7169 -119.3506 157° South 476 548 41,000  Level Oakland Center
Tue 09:47:40 AM 35.5706 -119.2739 157° South 473 544 41,000  Level Los Angeles Center
Tue 09:48:42 AM 35.4481 -119.2097 157° South 474 545 41,000  Level Los Angeles Center
Tue 09:49:43 AM 35.3256 -119.1464 157° South 476 548 41,000  Level Los Angeles Center
Tue 09:50:45 AM 35.2039 -119.0825 157° South 474 545 41,000  Level Los Angeles Center
Tue 09:51:46 AM 35.0836 -119.0200 157° South 469 540 41,000  Level Los Angeles Center
Tue 09:52:48 AM 34.9622 -118.9572 157° South 471 542 41,000  Level Los Angeles Center
Tue 09:53:49 AM 34.8317 -118.8897 157° South 473 544 41,000  Level Los Angeles Center
Tue 09:54:51 AM 34.7125 -118.8283 157° South 469 540 41,000  Level Los Angeles Center
Tue 09:55:52 AM 34.5928 -118.7678 157° South 467 537 41,000  Level Los Angeles Center
Tue 09:56:54 AM 34.4731 -118.7058 157° South 467 537 41,000  Level Los Angeles Center
Tue 09:57:55 AM 34.3531 -118.6469 158° South 467 537 41,000  Level Los Angeles Center
Tue 09:58:57 AM 34.2336 -118.5861 157° South 467 537 41,000  Level Los Angeles Center
Tue 09:59:58 AM 34.0922 -118.5128 157° South 462 532 41,000 -1,268 Level Los Angeles Center
Tue 10:01:00 AM 33.9728 -118.4519 157° South 465 535 38,400 -2,683 Descending Los Angeles Center
Tue 10:02:01 AM 33.8642 -118.3439 140° Southeast 508 585 35,500 -3,024 Descending Los Angeles Center
Tue 10:03:03 AM 33.7639 -118.2200 134° Southeast 508 585 32,200 -2,829 Descending Los Angeles Center
Tue 10:04:04 AM 33.6667 -118.0906 132° Southeast 502 578 29,700 -2,341 Descending Los Angeles Center
Tue 10:05:06 AM 33.5758 -117.9761 134° Southeast 475 547 27,400 -2,293 Descending Los Angeles Center
Tue 10:06:07 AM 33.4897 -117.8672 133° Southeast 451 519 25,000 -2,516 Descending Los Angeles Center
Tue 10:06:39 AM 33.4333 -117.8000 135° Southeast 432 497 23,500 -2,791 Descending Southern California TRACON
Tue 10:07:33 AM 33.3667 -117.7000 129° Southeast 435 501 21,000 -2,440 Descending Southern California TRACON
Tue 10:08:10 AM 33.3222 -117.6569 141° Southeast 432 497 19,800 -2,400 Descending Los Angeles Center
Tue 10:08:33 AM 33.2833 -117.6000 129° Southeast 420 483 18,600 -1,590 Descending Southern California TRACON
Tue 10:09:33 AM 33.2000 -117.5333 146° Southeast 409 471 17,600 -1,000 Descending Southern California TRACON
Tue 10:10:27 AM 33.1000 -117.4667 151° Southeast 400 460 16,700 -1,000 Descending Southern California TRACON
Tue 10:11:15 AM 33.0339 -117.4122 145° Southeast 390 449 15,900 -1,255 Descending Los Angeles Center
Tue 10:12:17 AM 32.9436 -117.3450 148° Southeast 385 443 14,400 -2,000 Descending Los Angeles Center
Tue 10:13:18 AM 32.8553 -117.2778 147° Southeast 379 436 11,800 -1,854 Descending Los Angeles Center
Tue 10:14:20 AM 32.8239 -117.1622 108° East 370 426 10,600 -1,349 Descending Los Angeles Center
Tue 10:15:27 AM 32.8000 -117.0333 102° East 324 373 8,900 -1,417 Descending Southern California TRACON
Tue 10:16:27 AM 32.7833 -116.9333 101° East 314 361 7,600 -1,000 Descending Southern California TRACON
Tue 10:17:21 AM 32.7500 -116.8500 115° Southeast 283 326 7,000 -789 Descending Southern California TRACON
Tue 10:18:21 AM 32.7167 -116.7833 121° Southeast 236 272 6,100 -952 Descending Southern California TRACON
Tue 10:19:27 AM 32.6500 -116.7833 180° South 227 261 5,000 -545 Descending Southern California TRACON
Tue 10:20:22 AM 32.6500 -116.8333 270° West 190 219 5,000 -104 Level Southern California TRACON
Tue 10:21:22 AM 32.6667 -116.9000 287° West 188 216 4,800 -350 Descending Southern California TRACON
Tue 10:22:22 AM 32.6667 -116.9500 270° West 161 185 4,300 -750 Descending Southern California TRACON
Tue 10:23:22 AM 32.6833 -117.0000 292° West 164 189 3,300 -1,000 Descending Southern California TRACON
Tue 10:24:22 AM 32.7000 -117.0500 292° West 163 188 2,300 -900 Descending Southern California TRACON
Tue 10:25:22 AM 32.7167 -117.1000 292° West 146 168 1,500 -800 Descending Southern California TRACON
Tue 10:26:22 AM 32.7167 -117.1333 270° West 125 144 700 -692 Descending Southern California TRACON
Tue 10:26:40 AM 32.7239 -117.1469 302° West 138 159 600 -300 Descending Los Angeles Center
Tue 10:27:42 AM 32.7331 -117.1844 286° West 135 155 300 -290 Descending Los Angeles Center

Login

Don't have an account? Register now (free) for customized features, flight alerts, and more!